createdAt,value
2023-05-21T00:01:55.100Z,234.20
2023-05-21T00:04:23.972Z,231.77
2023-05-21T00:06:53.518Z,227.23
2023-05-21T00:09:22.335Z,224.68
2023-05-21T00:11:50.897Z,230.68
2023-05-21T00:14:19.734Z,232.75
2023-05-21T00:16:48.445Z,231.98
2023-05-21T00:19:17.162Z,230.75
2023-05-21T00:21:47.284Z,232.10
2023-05-21T00:24:15.826Z,231.60
2023-05-21T00:26:44.345Z,239.27
2023-05-21T00:29:12.904Z,246.95
2023-05-21T00:31:41.484Z,246.82
2023-05-21T00:34:10.049Z,249.05
2023-05-21T00:36:38.634Z,253.27
2023-05-21T00:39:07.205Z,252.13
2023-05-21T00:41:36.634Z,252.23
2023-05-21T00:44:05.302Z,260.15
2023-05-21T00:46:34.218Z,258.90
2023-05-21T00:49:03.538Z,255.27
2023-05-21T00:51:32.022Z,262.58
2023-05-21T00:54:00.840Z,262.60
2023-05-21T00:56:29.804Z,260.70
2023-05-21T00:58:59.466Z,260.33
2023-05-21T01:01:28.154Z,253.20
2023-05-21T01:03:59.103Z,259.88
2023-05-21T01:06:27.933Z,255.75
2023-05-21T01:08:57.636Z,253.05
2023-05-21T01:11:43.054Z,255.60
2023-05-21T01:14:14.021Z,246.68
2023-05-21T01:16:45.403Z,249.35
2023-05-21T01:19:26.115Z,242.63
2023-05-21T01:22:02.028Z,245.00
2023-05-21T01:24:30.398Z,242.48
2023-05-21T01:27:00.078Z,240.13
2023-05-21T01:29:29.064Z,240.02
2023-05-21T01:32:24.458Z,244.20
2023-05-21T01:35:03.877Z,242.40
2023-05-21T01:37:57.037Z,240.98
2023-05-21T01:40:59.815Z,234.30
2023-05-21T01:43:31.031Z,240.40
2023-05-21T01:46:01.722Z,229.52
2023-05-21T01:48:32.092Z,233.82
2023-05-21T01:51:05.127Z,243.55
2023-05-21T01:53:33.929Z,236.75
2023-05-21T01:56:04.069Z,242.23
2023-05-21T01:58:32.647Z,248.88
2023-05-21T02:01:01.208Z,252.60
2023-05-21T02:03:32.270Z,253.43
2023-05-21T02:06:01.197Z,251.95
2023-05-21T02:08:30.546Z,246.80
2023-05-21T02:10:59.085Z,254.48
2023-05-21T02:13:27.735Z,255.80
2023-05-21T02:15:57.478Z,253.43
2023-05-21T02:18:27.737Z,248.30
2023-05-21T02:20:56.170Z,255.73
2023-05-21T02:23:24.684Z,254.52
2023-05-21T02:25:53.399Z,251.85
2023-05-21T02:28:22.701Z,253.00
2023-05-21T02:30:51.402Z,254.45
2023-05-21T02:33:21.191Z,249.18
2023-05-21T02:35:50.167Z,248.18
2023-05-21T02:38:20.801Z,248.07
2023-05-21T02:40:49.333Z,247.57
2023-05-21T02:43:17.980Z,243.77
2023-05-21T02:45:46.549Z,242.10
2023-05-21T02:48:15.161Z,240.50
2023-05-21T02:50:43.793Z,239.48
2023-05-21T02:53:12.167Z,235.35
2023-05-21T02:55:40.709Z,237.32
2023-05-21T02:58:09.300Z,236.52
2023-05-21T03:00:37.654Z,239.23
2023-05-21T03:03:06.453Z,234.63
2023-05-21T03:05:35.337Z,236.85
2023-05-21T03:08:04.903Z,235.18
2023-05-21T03:10:33.563Z,233.82
2023-05-21T03:13:02.569Z,234.07
2023-05-21T03:15:34.789Z,227.45
2023-05-21T03:18:03.719Z,232.20
2023-05-21T03:20:32.321Z,234.38
2023-05-21T03:23:01.727Z,233.82
2023-05-21T03:25:30.354Z,230.15
2023-05-21T03:27:59.130Z,227.05
2023-05-21T03:30:27.789Z,234.80
2023-05-21T03:32:57.704Z,231.65
2023-05-21T03:35:26.303Z,234.13
2023-05-21T03:37:54.864Z,235.13
2023-05-21T03:40:23.393Z,227.00
2023-05-21T03:42:52.160Z,233.77
2023-05-21T03:45:20.668Z,232.90
2023-05-21T03:47:50.094Z,232.77
2023-05-21T03:50:18.699Z,231.80
2023-05-21T03:52:47.350Z,238.07
2023-05-21T03:55:15.268Z,235.30
2023-05-21T03:57:44.243Z,241.95
2023-05-21T04:00:13.136Z,240.43
2023-05-21T04:02:41.668Z,239.43
2023-05-21T04:05:10.919Z,238.60
2023-05-21T04:07:39.822Z,235.60
2023-05-21T04:10:08.768Z,239.90
2023-05-21T04:12:36.689Z,239.60
2023-05-21T04:15:05.623Z,233.80
2023-05-21T04:17:34.595Z,236.52
2023-05-21T04:20:03.178Z,234.68
2023-05-21T04:22:31.742Z,234.63
2023-05-21T04:25:00.845Z,236.20
2023-05-21T04:27:29.219Z,241.18
2023-05-21T04:29:59.421Z,235.95
2023-05-21T04:32:29.794Z,236.93
2023-05-21T04:34:58.755Z,238.52
2023-05-21T04:37:27.294Z,241.90
2023-05-21T04:39:58.809Z,232.73
2023-05-21T04:42:27.633Z,235.57
2023-05-21T04:44:56.806Z,231.43
2023-05-21T04:47:25.404Z,245.25
2023-05-21T04:49:55.070Z,239.95
2023-05-21T04:52:26.365Z,238.95
2023-05-21T04:54:55.464Z,238.85
2023-05-21T04:57:25.839Z,239.35
2023-05-21T04:59:54.316Z,244.93
2023-05-21T05:02:22.807Z,240.52
2023-05-21T05:04:51.432Z,241.45
2023-05-21T05:07:20.216Z,244.75
2023-05-21T05:09:48.690Z,240.10
2023-05-21T05:12:17.280Z,248.43
2023-05-21T05:14:45.876Z,243.07
2023-05-21T05:17:17.633Z,237.10
2023-05-21T05:19:46.098Z,243.88
2023-05-21T05:22:14.645Z,248.30
2023-05-21T05:24:43.220Z,243.75
2023-05-21T05:27:11.831Z,242.07
2023-05-21T05:29:40.199Z,245.82
2023-05-21T05:32:09.335Z,249.00
2023-05-21T05:34:38.559Z,255.02
2023-05-21T05:37:07.225Z,251.20
2023-05-21T05:39:35.618Z,257.42
2023-05-21T05:42:04.760Z,261.85
2023-05-21T05:44:33.302Z,257.90
2023-05-21T05:47:02.051Z,266.63
2023-05-21T05:49:30.671Z,263.60
2023-05-21T05:51:59.253Z,271.27
2023-05-21T05:54:27.758Z,270.00
2023-05-21T05:56:56.311Z,270.70
2023-05-21T05:59:24.879Z,269.48
2023-05-21T06:01:53.362Z,263.83
2023-05-21T06:04:21.926Z,274.02
2023-05-21T06:06:50.730Z,274.38
2023-05-21T06:09:19.529Z,276.65
2023-05-21T06:11:48.188Z,273.00
2023-05-21T06:14:16.768Z,276.48
2023-05-21T06:16:44.665Z,261.15
2023-05-21T06:19:13.450Z,272.83
2023-05-21T06:21:42.278Z,272.65
2023-05-21T06:24:10.667Z,272.38
2023-05-21T06:26:39.291Z,279.70
2023-05-21T06:29:07.528Z,277.60
2023-05-21T06:31:36.377Z,274.80
2023-05-21T06:34:05.515Z,266.70
2023-05-21T06:36:34.220Z,261.17
2023-05-21T06:39:02.877Z,247.13
2023-05-21T06:41:31.496Z,257.98
2023-05-21T06:44:00.036Z,249.50
2023-05-21T06:46:28.718Z,254.13
2023-05-21T06:48:57.358Z,259.08
2023-05-21T06:51:25.852Z,255.07
2023-05-21T06:53:54.506Z,255.35
2023-05-21T06:56:23.324Z,256.38
2023-05-21T06:58:52.093Z,259.60
2023-05-21T07:01:21.012Z,258.55
2023-05-21T07:03:50.172Z,258.60
2023-05-21T07:06:19.513Z,262.48
2023-05-21T07:08:49.416Z,264.45
2023-05-21T07:11:18.019Z,272.15
2023-05-21T07:13:46.747Z,269.80
2023-05-21T07:16:15.368Z,264.90
2023-05-21T07:18:43.964Z,273.92
2023-05-21T07:21:12.656Z,274.65
2023-05-21T07:23:41.534Z,254.00
2023-05-21T07:26:11.876Z,265.95
2023-05-21T07:28:39.871Z,271.10
2023-05-21T07:31:09.563Z,271.10
2023-05-21T07:33:37.937Z,275.15
2023-05-21T07:36:07.033Z,271.63
2023-05-21T07:38:36.009Z,273.83
2023-05-21T07:41:04.517Z,273.02
2023-05-21T07:43:33.558Z,272.25
2023-05-21T07:46:02.188Z,272.27
2023-05-21T07:48:31.419Z,272.50
2023-05-21T07:51:01.388Z,269.73
2023-05-21T07:53:33.607Z,265.67
2023-05-21T07:56:02.305Z,268.70
2023-05-21T07:58:32.326Z,270.30
2023-05-21T08:01:00.905Z,273.63
2023-05-21T08:03:32.248Z,268.02
2023-05-21T08:06:01.433Z,268.25
2023-05-21T08:08:30.210Z,266.63
2023-05-21T08:10:58.982Z,270.00
2023-05-21T08:13:27.632Z,271.98
2023-05-21T08:15:56.192Z,269.10
2023-05-21T08:18:25.003Z,275.58
2023-05-21T08:20:53.696Z,271.70
2023-05-21T08:23:21.807Z,270.75
2023-05-21T08:25:50.400Z,265.77
2023-05-21T08:28:19.065Z,264.05
2023-05-21T08:30:47.090Z,274.55
2023-05-21T08:33:16.234Z,268.98
2023-05-21T08:35:44.803Z,269.95
2023-05-21T08:38:13.435Z,257.02
2023-05-21T08:40:42.767Z,257.45
2023-05-21T08:43:15.897Z,256.90
2023-05-21T08:45:49.174Z,258.90
2023-05-21T08:48:18.267Z,256.88
2023-05-21T08:50:47.795Z,256.15
2023-05-21T08:53:27.326Z,259.05
2023-05-21T08:55:58.602Z,254.48
2023-05-21T08:58:27.311Z,254.30
2023-05-21T09:00:57.638Z,255.02
2023-05-21T09:03:26.439Z,264.77
2023-05-21T09:05:56.506Z,252.32
2023-05-21T09:08:36.630Z,254.65
2023-05-21T09:11:05.238Z,251.00
2023-05-21T09:13:36.259Z,250.95
2023-05-21T09:16:06.852Z,249.20
2023-05-21T09:18:35.474Z,248.10
2023-05-21T09:21:32.720Z,252.20
2023-05-21T09:24:03.302Z,258.88
2023-05-21T09:26:31.939Z,247.80
2023-05-21T09:29:02.172Z,248.05
2023-05-21T09:31:31.695Z,257.45
2023-05-21T09:34:00.255Z,257.48
2023-05-21T09:36:30.635Z,245.73
2023-05-21T09:39:01.203Z,261.20
2023-05-21T09:41:36.597Z,264.10
2023-05-21T09:44:05.721Z,264.83
2023-05-21T09:46:42.656Z,253.23
2023-05-21T09:49:28.093Z,251.43
2023-05-21T09:51:58.473Z,235.63
2023-05-21T09:54:32.722Z,255.73
2023-05-21T09:57:04.258Z,249.05
2023-05-21T09:59:42.373Z,237.32
2023-05-21T10:02:31.305Z,245.50
2023-05-21T10:05:00.251Z,248.45
2023-05-21T10:07:29.756Z,248.77
2023-05-21T10:09:59.422Z,250.68
2023-05-21T10:12:32.197Z,254.25
2023-05-21T10:15:04.832Z,246.75
2023-05-21T10:17:34.076Z,247.75
2023-05-21T10:20:04.336Z,251.00
2023-05-21T10:22:33.119Z,256.80
2023-05-21T10:25:04.948Z,253.30
2023-05-21T10:27:34.832Z,257.83
2023-05-21T10:30:05.765Z,258.63
2023-05-21T10:32:35.107Z,257.13
2023-05-21T10:35:03.850Z,258.02
2023-05-21T10:37:32.534Z,261.80
2023-05-21T10:40:01.037Z,274.52
2023-05-21T10:42:32.608Z,282.98
2023-05-21T10:45:25.845Z,285.40
2023-05-21T10:48:13.746Z,296.98
2023-05-21T10:51:13.373Z,293.10
2023-05-21T10:53:55.668Z,301.23
2023-05-21T10:56:31.172Z,300.55
2023-05-21T10:59:32.832Z,305.48
2023-05-21T11:02:03.002Z,300.80
2023-05-21T11:04:31.126Z,302.45
2023-05-21T11:07:03.803Z,307.70
2023-05-21T11:09:32.246Z,307.15
2023-05-21T11:12:02.167Z,315.27
2023-05-21T11:14:39.652Z,301.23
2023-05-21T11:17:15.394Z,310.23
2023-05-21T11:19:52.150Z,308.70
2023-05-21T11:22:28.800Z,304.52
2023-05-21T11:25:02.430Z,304.30
2023-05-21T11:27:43.311Z,309.38
2023-05-21T11:30:17.051Z,307.13
2023-05-21T11:33:12.490Z,309.00
2023-05-21T11:36:01.534Z,309.98
2023-05-21T11:38:31.759Z,307.55
2023-05-21T11:41:05.439Z,315.27
2023-05-21T11:43:34.092Z,304.60
2023-05-21T11:46:02.994Z,314.50
2023-05-21T11:48:33.638Z,313.58
2023-05-21T11:51:03.527Z,309.42
2023-05-21T11:53:32.224Z,314.42
2023-05-21T11:56:03.582Z,309.02
2023-05-21T11:58:32.911Z,309.70
2023-05-21T12:01:01.466Z,305.33
2023-05-21T12:03:31.675Z,302.02
2023-05-21T12:06:07.972Z,308.50
2023-05-21T12:08:37.210Z,301.83
2023-05-21T12:11:05.937Z,306.38
2023-05-21T12:13:34.620Z,303.98
2023-05-21T12:16:06.676Z,303.77
2023-05-21T12:18:35.603Z,309.58
2023-05-21T12:21:04.178Z,303.75
2023-05-21T12:23:33.160Z,305.50
2023-05-21T12:26:01.733Z,301.38
2023-05-21T12:28:30.601Z,304.55
2023-05-21T12:30:59.225Z,306.90
2023-05-21T12:33:37.538Z,304.15
2023-05-21T12:36:06.712Z,298.60
2023-05-21T12:38:35.412Z,299.05
2023-05-21T12:41:07.851Z,296.63
2023-05-21T12:43:36.521Z,297.67
2023-05-21T12:46:05.166Z,297.48
2023-05-21T12:48:33.589Z,297.90
2023-05-21T12:51:02.141Z,300.25
2023-05-21T12:53:39.484Z,302.88
2023-05-21T12:56:15.424Z,300.08
2023-05-21T12:58:44.704Z,297.23
2023-05-21T13:01:13.969Z,296.10
2023-05-21T13:03:45.666Z,290.60
2023-05-21T13:06:15.515Z,285.95
2023-05-21T13:08:43.985Z,292.27
2023-05-21T13:11:12.523Z,293.50
2023-05-21T13:13:41.118Z,290.50
2023-05-21T13:16:09.765Z,291.63
2023-05-21T13:18:38.307Z,292.33
2023-05-21T13:21:07.179Z,286.50
2023-05-21T13:23:35.668Z,289.42
2023-05-21T13:26:04.178Z,284.73
2023-05-21T13:28:32.849Z,287.23
2023-05-21T13:31:01.364Z,289.50
2023-05-21T13:33:30.002Z,284.15
2023-05-21T13:35:58.624Z,287.02
2023-05-21T13:38:27.261Z,284.95
2023-05-21T13:40:55.828Z,290.10
2023-05-21T13:43:24.422Z,289.95
2023-05-21T13:45:53.222Z,284.17
2023-05-21T13:48:21.907Z,287.88
2023-05-21T13:50:50.390Z,294.70
2023-05-21T13:53:18.904Z,294.58
2023-05-21T13:55:47.468Z,288.70
2023-05-21T13:58:15.860Z,292.48
2023-05-21T14:00:44.464Z,285.23
2023-05-21T14:03:13.517Z,290.23
2023-05-21T14:05:42.620Z,284.00
2023-05-21T14:08:11.198Z,292.52
2023-05-21T14:10:39.749Z,289.08
2023-05-21T14:13:18.884Z,288.95
2023-05-21T14:15:49.769Z,289.25
2023-05-21T14:18:18.396Z,289.27
2023-05-21T14:20:46.928Z,282.98
2023-05-21T14:23:15.572Z,290.75
2023-05-21T14:25:44.296Z,291.30
2023-05-21T14:28:12.878Z,290.52
2023-05-21T14:30:41.486Z,289.58
2023-05-21T14:33:09.952Z,290.10
2023-05-21T14:35:38.705Z,289.15
2023-05-21T14:38:07.454Z,290.25
2023-05-21T14:40:36.149Z,287.83
2023-05-21T14:43:04.674Z,297.80
2023-05-21T14:45:36.731Z,294.23
2023-05-21T14:48:09.721Z,286.50
2023-05-21T14:50:38.593Z,290.35
2023-05-21T14:53:12.408Z,296.98
2023-05-21T14:55:41.249Z,287.50
2023-05-21T14:58:10.163Z,282.73
2023-05-21T15:00:39.583Z,290.38
2023-05-21T15:03:08.557Z,289.95
2023-05-21T15:05:37.543Z,286.40
2023-05-21T15:08:07.281Z,288.50
2023-05-21T15:10:35.902Z,292.48
2023-05-21T15:13:04.595Z,292.23
2023-05-21T15:15:33.126Z,295.52
2023-05-21T15:18:01.788Z,294.38
2023-05-21T15:20:30.461Z,286.42
2023-05-21T15:25:33.624Z,282.13
2023-05-21T15:28:02.241Z,283.38
2023-05-21T15:30:30.621Z,283.40
2023-05-21T15:32:59.165Z,279.38
2023-05-21T15:35:27.886Z,283.20
2023-05-21T15:37:56.488Z,277.65
2023-05-21T15:40:27.098Z,278.85
2023-05-21T15:42:56.051Z,276.88
2023-05-21T15:45:25.736Z,276.33
2023-05-21T15:47:54.315Z,273.85
2023-05-21T15:50:22.754Z,268.02
2023-05-21T15:52:53.352Z,265.67
2023-05-21T15:55:22.346Z,262.83
2023-05-21T15:57:50.934Z,264.88
2023-05-21T16:00:19.831Z,267.80
2023-05-21T16:02:48.688Z,270.00
2023-05-21T16:05:17.816Z,269.92
2023-05-21T16:07:46.897Z,267.42
2023-05-21T16:10:15.446Z,267.55
2023-05-21T16:12:43.458Z,275.52
2023-05-21T16:15:11.686Z,271.77
2023-05-21T16:17:39.678Z,274.35
2023-05-21T16:20:08.549Z,268.60
2023-05-21T16:22:36.515Z,266.40
2023-05-21T16:25:05.279Z,265.65
2023-05-21T16:27:33.941Z,260.25
2023-05-21T16:30:02.527Z,261.05
2023-05-21T16:32:30.943Z,246.48
2023-05-21T16:34:59.554Z,240.80
2023-05-21T16:37:28.685Z,241.13
2023-05-21T16:39:56.645Z,239.30
2023-05-21T16:42:25.264Z,234.18
2023-05-21T16:44:53.791Z,232.93
2023-05-21T16:47:22.144Z,223.77
2023-05-21T16:50:14.478Z,215.90
2023-05-21T16:52:45.265Z,223.57
2023-05-21T16:55:13.870Z,213.18
2023-05-21T16:57:42.296Z,209.43
2023-05-21T17:00:11.173Z,211.23
2023-05-21T17:02:40.285Z,207.60
2023-05-21T17:05:09.687Z,182.45
2023-05-21T17:10:10.621Z,171.82
2023-05-21T17:12:39.173Z,180.10
2023-05-21T17:15:07.850Z,166.10
2023-05-21T17:17:36.761Z,161.25
2023-05-21T17:20:05.669Z,162.65
2023-05-21T17:22:34.242Z,157.82
2023-05-21T17:25:02.878Z,153.45
2023-05-21T17:27:31.378Z,155.30
2023-05-21T17:29:59.803Z,157.73
2023-05-21T17:32:28.392Z,154.63
2023-05-21T17:34:56.954Z,150.23
2023-05-21T17:37:25.238Z,151.32
2023-05-21T17:39:53.152Z,166.05
2023-05-21T17:42:21.190Z,177.68
2023-05-21T17:44:49.170Z,180.40
2023-05-21T17:47:17.111Z,180.23
2023-05-21T17:49:45.130Z,177.82
2023-05-21T17:52:13.499Z,180.07
2023-05-21T17:54:42.382Z,182.30
2023-05-21T17:57:10.971Z,182.00
2023-05-21T17:59:41.553Z,183.00
2023-05-21T18:02:10.575Z,185.65
2023-05-21T18:04:39.421Z,188.90
2023-05-21T18:07:08.570Z,197.57
2023-05-21T18:09:37.182Z,196.98
2023-05-21T18:12:07.033Z,182.23
2023-05-21T18:14:35.721Z,184.48
2023-05-21T18:17:06.388Z,191.93
2023-05-21T18:19:35.216Z,195.57
2023-05-21T18:22:21.730Z,193.88
2023-05-21T18:24:51.297Z,181.75
2023-05-21T18:27:19.830Z,177.85
2023-05-21T18:29:50.361Z,183.45
2023-05-21T18:32:18.914Z,180.35
2023-05-21T18:34:47.844Z,179.73
2023-05-21T18:37:16.376Z,177.48
2023-05-21T18:39:44.944Z,181.35
2023-05-21T18:42:14.351Z,178.23
2023-05-21T18:44:42.903Z,177.30
2023-05-21T18:47:11.403Z,174.00
2023-05-21T18:49:40.490Z,181.65
2023-05-21T18:52:15.114Z,177.02
2023-05-21T18:57:48.879Z,170.82
2023-05-21T19:00:30.661Z,178.50
2023-05-21T19:03:00.243Z,180.82
2023-05-21T19:05:29.608Z,181.40
2023-05-21T19:07:59.504Z,181.32
2023-05-21T19:10:28.348Z,177.20
2023-05-21T19:12:56.906Z,172.85
2023-05-21T19:15:25.496Z,170.27
2023-05-21T19:17:54.058Z,171.38
2023-05-21T19:20:27.860Z,177.50
2023-05-21T19:22:56.730Z,174.90
2023-05-21T19:25:25.534Z,170.43
2023-05-21T19:27:54.205Z,172.23
2023-05-21T19:30:22.730Z,169.70
2023-05-21T19:32:51.413Z,170.52
2023-05-21T19:35:20.066Z,167.95
2023-05-21T19:37:48.749Z,168.05
2023-05-21T19:40:18.906Z,172.30
2023-05-21T19:42:47.438Z,167.63
2023-05-21T19:45:16.896Z,165.40
2023-05-21T19:47:45.563Z,164.73
2023-05-21T19:50:14.271Z,156.70
2023-05-21T19:52:42.868Z,155.00
2023-05-21T19:55:11.704Z,160.13
2023-05-21T19:57:40.982Z,160.15
2023-05-21T20:00:11.582Z,157.95
2023-05-21T20:02:40.207Z,152.77
2023-05-21T20:05:10.046Z,151.40
2023-05-21T20:07:39.157Z,153.68
2023-05-21T20:10:08.764Z,149.50
2023-05-21T20:12:37.879Z,146.23
2023-05-21T20:15:07.960Z,146.88
2023-05-21T20:17:37.285Z,150.93
2023-05-21T20:20:12.364Z,149.18
2023-05-21T20:22:40.700Z,145.10
2023-05-21T20:25:10.109Z,145.77
2023-05-21T20:27:40.343Z,146.68
2023-05-21T20:30:12.023Z,138.77
2023-05-21T20:32:40.713Z,143.63
2023-05-21T20:35:12.729Z,143.95
2023-05-21T20:37:41.302Z,136.50
2023-05-21T20:40:12.158Z,139.25
2023-05-21T20:42:42.966Z,139.38
2023-05-21T20:45:14.106Z,141.88
2023-05-21T20:47:43.858Z,141.20
2023-05-21T20:50:13.368Z,137.10
2023-05-21T20:52:42.361Z,135.93
2023-05-21T20:55:14.049Z,132.55
2023-05-21T20:57:42.768Z,129.30
2023-05-21T21:00:14.791Z,124.45
2023-05-21T21:02:43.249Z,125.50
2023-05-21T21:05:12.136Z,122.15
2023-05-21T21:07:41.322Z,121.78
2023-05-21T21:10:10.403Z,121.45
2023-05-21T21:12:39.180Z,121.28
2023-05-21T21:15:08.248Z,120.32
2023-05-21T21:17:36.917Z,119.15
2023-05-21T21:20:07.562Z,119.03
2023-05-21T21:22:36.051Z,121.35
2023-05-21T21:25:04.656Z,119.45
2023-05-21T21:27:33.275Z,119.38
2023-05-21T21:30:01.821Z,118.38
2023-05-21T21:32:30.416Z,115.18
2023-05-21T21:34:58.975Z,113.95
2023-05-21T21:37:28.351Z,114.70
2023-05-21T21:39:58.005Z,110.68
2023-05-21T21:42:26.582Z,108.95
2023-05-21T21:44:55.036Z,110.75
2023-05-21T21:47:23.730Z,104.70
2023-05-21T21:49:52.188Z,108.05
2023-05-21T21:52:21.937Z,104.95
2023-05-21T21:54:50.515Z,103.63
2023-05-21T21:57:19.111Z,104.28
2023-05-21T21:59:47.599Z,101.05
2023-05-21T22:02:16.274Z,97.63
2023-05-21T22:04:46.360Z,98.18
2023-05-21T22:07:18.300Z,97.07
2023-05-21T22:09:47.358Z,92.57
2023-05-21T22:12:16.018Z,92.72
2023-05-21T22:14:45.031Z,89.38
2023-05-21T22:17:13.633Z,89.63
2023-05-21T22:19:41.639Z,93.32
2023-05-21T22:22:11.240Z,92.10
2023-05-21T22:24:39.984Z,91.45
2023-05-21T22:27:08.800Z,87.82
2023-05-21T22:29:37.567Z,88.30
2023-05-21T22:32:06.422Z,89.47
2023-05-21T22:34:34.869Z,89.07
2023-05-21T22:37:03.455Z,90.28
2023-05-21T22:39:32.122Z,90.45
2023-05-21T22:42:01.038Z,92.20
2023-05-21T22:44:29.797Z,88.93
2023-05-21T22:47:01.530Z,88.57
2023-05-21T22:49:31.440Z,88.47
2023-05-21T22:52:06.386Z,86.07
2023-05-21T22:54:34.938Z,87.13
2023-05-21T22:57:03.850Z,85.15
2023-05-21T22:59:34.552Z,83.85
2023-05-21T23:02:03.345Z,84.90
2023-05-21T23:04:43.855Z,83.20
2023-05-21T23:07:14.030Z,82.20
2023-05-21T23:09:42.685Z,83.97
2023-05-21T23:12:11.626Z,83.32
2023-05-21T23:14:40.191Z,80.60
2023-05-21T23:17:08.823Z,81.07
2023-05-21T23:19:37.759Z,79.30
2023-05-21T23:22:06.695Z,78.63
2023-05-21T23:24:37.559Z,75.57
2023-05-21T23:27:06.442Z,75.22
2023-05-21T23:29:35.063Z,74.00
2023-05-21T23:32:06.649Z,72.13
2023-05-21T23:34:35.290Z,73.93
2023-05-21T23:37:03.832Z,76.78
2023-05-21T23:39:32.390Z,75.25
2023-05-21T23:42:00.959Z,75.88
2023-05-21T23:44:29.565Z,72.05
2023-05-21T23:46:58.126Z,73.03
2023-05-21T23:49:26.526Z,74.05
2023-05-21T23:51:55.386Z,74.85
2023-05-21T23:54:23.951Z,75.80
2023-05-21T23:56:52.540Z,73.40
2023-05-21T23:59:21.203Z,72.70
